Pagrindinis puslapis
METAR-TAF:

METAR-TAF

Oro uostai :

Burlengė, Švedija

platuma: 60-26N, ilguma: 015-31E, Aukštis: 145 m

Dabartinis oras

Ataskaita buvo paskelbta 30 minutes, ne 05:50 UTC
Vėjas 2 kt iš Pietryčių
Temperatūra -12°C
Drėgmė 92%
Slėgis 991 hPa
Matomumas 10 km arba daugiau

METAR: ESSD 020550Z AUTO 14002KT 9999 SCT032/// OVC040/// M12/M13 Q0991

Laikas: 07:20 (06:20 UTC)

Prognozė

Ataskaita buvo paskelbta 15 valandos ir 50 minutes, ne 14:30 UTC
Prognozė galioja nuo 01 metu 15 UTC su 01 metu 17 UTC
Vėjas 1 kt nuo kintamojo kryptimis
Matomumas 10 km arba daugiau
nėra debesų žemiau 1500 m ir nėra kamuolinių lietaus debesų

TAF: ESSD 011430Z 0115/0117 VRB01KT CAVOK

Orai ataskaitas ir orų prognozės (METAR, TAF).

turimą stotys yra geltonos ir raudonos taškus žemėlapyje.

Perkelti pele per norėdami pamatyti stoties vardą.

Tada spustelėkite, norėdami matyti oro stebėjimo ir prognozės.

Norėdami pakeisti žemėlapį: spustelėkite ant žalios mygtukų su juodo kryžiaus žemyn,; žalią mygtuką su brūkšneliu, jei norite nutolinti; arba žalių rodyklių gretimoms žemėlapius.


METAR-TAF: